Time;durP1;ratioP1;P1;durP2;ratioP2;P2;SDS_P1;SDS_P2;PMS_P1;PMS_P2;Temp;Humidity;BMP_temperature;BMP_pressure;BME280_temperature;BME280_humidity;BME280_pressure;Samples;Min_cycle;Max_cycle;Signal;HPM_P1;HPM_P2
2022/04/06 03:41:25;;;;;;;6.63;5.37;;;10.70;99.90;;;;;;5193632;23;20486;-70
2022/04/06 03:43:52;;;;;;;5.53;5.03;;;10.70;99.90;;;;;;4977903;28;20454;-70
2022/04/06 03:46:19;;;;;;;6.33;5.93;;;10.60;99.90;;;;;;4977516;28;20550;-71
2022/04/06 03:48:45;;;;;;;5.63;5.33;;;10.70;99.90;;;;;;4977304;28;20461;-71
2022/04/06 03:51:12;;;;;;;5.57;5.07;;;10.70;99.90;;;;;;4977177;28;20868;-70
2022/04/06 03:53:39;;;;;;;5.80;5.40;;;10.70;99.90;;;;;;4978062;28;20884;-71
2022/04/06 03:56:06;;;;;;;6.17;5.67;;;10.70;99.90;;;;;;4977258;28;20455;-70
2022/04/06 03:58:34;;;;;;;5.80;5.37;;;10.70;99.90;;;;;;4977228;28;20459;-70
2022/04/06 04:01:01;;;;;;;5.83;5.47;;;10.70;99.90;;;;;;4977314;28;20486;-70
2022/04/06 04:03:27;;;;;;;5.87;5.47;;;10.70;99.90;;;;;;4977732;28;20643;-71
2022/04/06 04:05:54;;;;;;;5.53;5.13;;;10.70;99.90;;;;;;4977651;28;20823;-71
2022/04/06 04:08:22;;;;;;;8.30;5.43;;;10.70;99.90;;;;;;4977344;28;20459;-72
2022/04/06 04:10:49;;;;;;;5.77;5.20;;;10.60;99.90;;;;;;4978064;28;20479;-71
2022/04/06 04:13:15;;;;;;;5.90;5.43;;;10.60;99.90;;;;;;4978895;28;20482;-71
2022/04/06 04:15:43;;;;;;;5.77;5.27;;;10.60;99.90;;;;;;4978441;28;20462;-71
2022/04/06 04:18:10;;;;;;;6.90;6.20;;;10.60;99.90;;;;;;4977884;28;20455;-71
2022/04/06 04:20:37;;;;;;;5.70;5.30;;;10.60;99.90;;;;;;4977637;28;20482;-71
2022/04/06 04:23:04;;;;;;;6.07;5.47;;;10.60;99.90;;;;;;4977739;28;20813;-72
2022/04/06 04:25:31;;;;;;;5.70;5.30;;;10.70;99.90;;;;;;4978008;28;20462;-71
2022/04/06 04:27:57;;;;;;;6.43;5.93;;;10.60;99.90;;;;;;4977531;28;20464;-71
2022/04/06 04:30:24;;;;;;;6.43;5.83;;;10.70;99.90;;;;;;4977859;28;20479;-71
2022/04/06 04:32:52;;;;;;;7.07;6.37;;;10.60;99.90;;;;;;4979968;28;20489;-71
2022/04/06 04:35:19;;;;;;;6.40;5.80;;;10.60;99.90;;;;;;4981107;28;20458;-70
2022/04/06 04:37:45;;;;;;;6.30;5.90;;;10.60;99.90;;;;;;4981271;28;20820;-70
2022/04/06 04:40:12;;;;;;;6.40;5.90;;;10.60;99.90;;;;;;4980156;28;20491;-71
2022/04/06 04:42:39;;;;;;;7.10;6.40;;;10.60;99.90;;;;;;4978922;28;20455;-72
2022/04/06 04:45:07;;;;;;;7.07;6.47;;;10.60;99.90;;;;;;4977283;28;20461;-71
2022/04/06 04:47:34;;;;;;;8.47;6.50;;;10.60;99.90;;;;;;4977087;28;20513;-71
2022/04/06 04:50:02;;;;;;;6.57;6.10;;;10.60;99.90;;;;;;4976982;28;20491;-71
2022/04/06 04:52:29;;;;;;;7.27;6.67;;;10.50;99.90;;;;;;4976818;28;20490;-71
2022/04/06 04:54:56;;;;;;;7.10;6.53;;;10.50;99.90;;;;;;4976517;28;20458;-71
2022/04/06 04:57:23;;;;;;;7.47;6.93;;;10.50;99.90;;;;;;4976625;28;20466;-71
2022/04/06 04:59:52;;;;;;;7.30;6.60;;;10.50;99.90;;;;;;4975171;28;21000;-71
2022/04/06 05:02:19;;;;;;;6.00;5.60;;;10.50;99.90;;;;;;4976831;28;20467;-71
2022/04/06 05:04:45;;;;;;;6.90;6.40;;;10.50;99.90;;;;;;4976579;28;20966;-71
2022/04/06 05:07:13;;;;;;;7.47;6.90;;;10.50;99.90;;;;;;4976797;28;20461;-72
2022/04/06 05:09:40;;;;;;;6.67;6.03;;;10.50;99.90;;;;;;4976463;28;20938;-71
2022/04/06 05:12:08;;;;;;;6.83;5.80;;;10.50;99.90;;;;;;4976548;28;20457;-71
2022/04/06 05:14:35;;;;;;;5.97;5.57;;;10.50;99.90;;;;;;4976570;28;20514;-71
2022/04/06 05:17:02;;;;;;;6.40;5.90;;;10.50;99.90;;;;;;4976383;28;20459;-70
2022/04/06 05:19:29;;;;;;;6.40;5.80;;;10.50;99.90;;;;;;4976110;28;20469;-70
2022/04/06 05:21:55;;;;;;;6.40;5.90;;;10.50;99.90;;;;;;4975418;28;20455;-70
2022/04/06 05:24:23;;;;;;;5.70;5.27;;;10.50;99.90;;;;;;4975638;28;20480;-70
2022/04/06 05:26:50;;;;;;;6.67;6.10;;;10.40;99.90;;;;;;4975474;28;20797;-70
2022/04/06 05:29:17;;;;;;;5.67;5.17;;;10.40;99.90;;;;;;4975768;28;20466;-70
2022/04/06 05:31:44;;;;;;;5.73;5.33;;;10.30;99.90;;;;;;4975389;28;21000;-71
2022/04/06 05:34:11;;;;;;;7.27;6.57;;;10.40;99.90;;;;;;4975738;28;20478;-70
2022/04/06 05:36:37;;;;;;;5.90;5.50;;;10.40;99.90;;;;;;4975631;28;20462;-70
2022/04/06 05:39:04;;;;;;;8.13;6.27;;;10.40;99.90;;;;;;4975434;28;20458;-70
2022/04/06 05:41:32;;;;;;;6.27;5.80;;;10.50;99.90;;;;;;4975067;28;20489;-70
2022/04/06 05:43:59;;;;;;;6.07;5.57;;;10.50;99.90;;;;;;4975312;28;20459;-71
2022/04/06 05:46:26;;;;;;;5.50;5.10;;;10.60;99.90;;;;;;4975413;28;20455;-71
2022/04/06 05:48:52;;;;;;;5.30;4.90;;;10.60;99.90;;;;;;4975247;28;20513;-71
2022/04/06 05:51:19;;;;;;;5.77;5.27;;;10.70;99.90;;;;;;4975189;28;20844;-71
2022/04/06 05:53:46;;;;;;;5.87;5.43;;;10.70;99.90;;;;;;4975763;28;20482;-71
2022/04/06 05:56:13;;;;;;;5.60;5.10;;;10.80;99.90;;;;;;4975225;28;20462;-71
2022/04/06 05:58:42;;;;;;;6.13;5.63;;;10.80;99.90;;;;;;4975240;28;20879;-71
2022/04/06 06:01:09;;;;;;;5.97;5.57;;;10.90;99.90;;;;;;4975130;28;20578;-72
2022/04/06 06:03:36;;;;;;;5.67;5.17;;;11.00;99.90;;;;;;4975117;28;20823;-71
2022/04/06 06:06:03;;;;;;;6.10;5.50;;;11.00;99.90;;;;;;4975100;28;20459;-71
2022/04/06 06:08:30;;;;;;;5.50;5.10;;;11.10;99.90;;;;;;4975139;28;20459;-71
2022/04/06 06:10:57;;;;;;;5.33;5.03;;;11.10;99.90;;;;;;4974642;28;20479;-71
2022/04/06 06:13:23;;;;;;;6.43;5.83;;;11.20;99.90;;;;;;4974987;28;20478;-71
2022/04/06 06:15:52;;;;;;;5.50;5.10;;;11.20;99.90;;;;;;4975049;28;20494;-72
2022/04/06 06:18:19;;;;;;;9.00;5.67;;;11.30;99.90;;;;;;4975142;28;20812;-71
2022/04/06 06:20:45;;;;;;;5.90;5.40;;;11.30;99.90;;;;;;4975026;28;20475;-72
2022/04/06 06:23:12;;;;;;;6.33;5.77;;;11.30;99.90;;;;;;4974875;28;20462;-71
2022/04/06 06:25:39;;;;;;;6.07;5.67;;;11.30;99.90;;;;;;4975100;28;20843;-71
2022/04/06 06:28:06;;;;;;;6.53;6.13;;;11.40;99.90;;;;;;4975166;28;20517;-71
2022/04/06 06:30:33;;;;;;;5.63;5.23;;;11.40;99.90;;;;;;4974959;28;20537;-71
2022/04/06 06:33:01;;;;;;;7.10;6.17;;;11.50;99.90;;;;;;4975467;28;20487;-71
2022/04/06 06:35:28;;;;;;;6.00;5.60;;;11.50;99.90;;;;;;4975105;28;20862;-70
2022/04/06 06:37:57;;;;;;;5.80;5.40;;;11.50;99.90;;;;;;4974822;28;20458;-71
2022/04/06 06:40:25;;;;;;;6.67;6.10;;;11.60;99.90;;;;;;4974697;28;20521;-70
2022/04/06 06:42:52;;;;;;;5.97;5.37;;;11.60;99.90;;;;;;4974618;28;20926;-70
2022/04/06 06:45:19;;;;;;;6.23;5.50;;;11.60;99.90;;;;;;4974785;28;20455;-70
2022/04/06 06:47:47;;;;;;;6.00;5.50;;;11.60;99.90;;;;;;4974563;28;20510;-70
2022/04/06 06:50:17;;;;;;;6.63;6.03;;;11.60;99.90;;;;;;4974754;28;20475;-70
2022/04/06 06:52:45;;;;;;;9.80;6.60;;;11.70;99.90;;;;;;4975166;28;20439;-70
2022/04/06 06:55:12;;;;;;;6.00;5.50;;;11.70;99.90;;;;;;4974846;28;20459;-71
2022/04/06 06:57:39;;;;;;;7.20;6.60;;;11.80;99.90;;;;;;4974891;28;20455;-71
2022/04/06 07:00:10;;;;;;;7.03;6.43;;;11.80;99.90;;;;;;4974142;28;20479;-71
2022/04/06 07:02:38;;;;;;;6.50;5.90;;;11.80;99.90;;;;;;4975431;28;20826;-70
2022/04/06 07:05:05;;;;;;;5.67;5.27;;;11.90;99.90;;;;;;4974686;28;20455;-69
2022/04/06 07:07:33;;;;;;;5.60;5.13;;;11.90;99.90;;;;;;4974194;28;20928;-68
2022/04/06 07:10:00;;;;;;;5.70;5.30;;;11.90;99.90;;;;;;4974031;28;20482;-68
2022/04/06 07:12:28;;;;;;;5.23;4.83;;;11.90;99.90;;;;;;4975216;28;20454;-68
2022/04/06 07:14:54;;;;;;;6.40;5.57;;;12.00;99.90;;;;;;4975434;28;20482;-67
2022/04/06 07:17:21;;;;;;;5.73;5.33;;;12.00;99.90;;;;;;4974459;28;20458;-68
2022/04/06 07:19:48;;;;;;;5.70;5.30;;;12.00;99.90;;;;;;4974528;28;20454;-68
2022/04/06 07:22:14;;;;;;;5.87;5.37;;;12.00;99.90;;;;;;4975026;28;20465;-67
2022/04/06 07:24:42;;;;;;;6.20;5.70;;;12.00;99.90;;;;;;4977782;28;20451;-68
2022/04/06 07:27:09;;;;;;;6.00;5.13;;;12.00;99.90;;;;;;4978531;28;20458;-68
2022/04/06 07:29:36;;;;;;;5.83;5.40;;;12.00;99.90;;;;;;4977516;28;20455;-69
2022/04/06 07:32:03;;;;;;;6.20;5.60;;;12.10;99.90;;;;;;4977384;28;20466;-69
2022/04/06 07:34:29;;;;;;;6.10;5.60;;;12.10;99.90;;;;;;4978172;28;20489;-69
2022/04/06 07:36:56;;;;;;;5.50;5.10;;;12.20;99.90;;;;;;4977550;28;20463;-70
2022/04/06 07:39:23;;;;;;;6.20;5.40;;;12.30;99.90;;;;;;4977390;28;20459;-69
2022/04/06 07:41:51;;;;;;;6.00;5.50;;;12.40;99.90;;;;;;4977126;28;20487;-69
2022/04/06 07:44:18;;;;;;;5.50;5.07;;;12.50;99.90;;;;;;4977495;28;20478;-68
2022/04/06 07:46:45;;;;;;;5.77;5.17;;;12.50;99.90;;;;;;4977375;28;20463;-68
2022/04/06 07:49:12;;;;;;;5.43;5.03;;;12.60;99.90;;;;;;4979622;28;20455;-68
2022/04/06 07:51:38;;;;;;;7.93;5.80;;;12.70;99.90;;;;;;4977190;28;20478;-69
2022/04/06 07:54:05;;;;;;;5.10;4.70;;;12.60;99.90;;;;;;4977888;28;20486;-69
2022/04/06 07:56:32;;;;;;;4.47;4.20;;;12.70;99.90;;;;;;4978580;28;20455;-69
2022/04/06 07:59:00;;;;;;;4.83;4.37;;;12.80;99.90;;;;;;4978003;28;20466;-69
2022/04/06 08:01:27;;;;;;;4.60;4.33;;;12.80;99.90;;;;;;4977710;28;20475;-68
2022/04/06 08:03:54;;;;;;;5.07;4.77;;;12.80;99.90;;;;;;4977168;28;20451;-70
2022/04/06 08:06:22;;;;;;;5.43;4.90;;;12.70;99.90;;;;;;4977665;28;20989;-69
2022/04/06 08:08:51;;;;;;;4.77;4.37;;;12.60;99.90;;;;;;4977357;28;20455;-70
2022/04/06 08:11:18;;;;;;;5.17;4.80;;;12.70;99.90;;;;;;4977599;28;20482;-70
2022/04/06 08:13:46;;;;;;;5.87;4.63;;;12.80;99.90;;;;;;4977089;28;20481;-70
2022/04/06 08:16:15;;;;;;;5.00;4.50;;;12.90;99.90;;;;;;4977279;28;20946;-70
2022/04/06 08:18:42;;;;;;;3.03;2.93;;;13.00;99.90;;;;;;4977283;28;20459;-70
2022/04/06 08:21:09;;;;;;;3.40;3.20;;;13.10;99.90;;;;;;4977440;28;20482;-70
2022/04/06 08:23:36;;;;;;;2.70;2.60;;;13.10;99.90;;;;;;4977458;28;20457;-69
2022/04/06 08:26:03;;;;;;;3.50;3.20;;;13.20;99.90;;;;;;4976646;28;20466;-69
2022/04/06 08:28:30;;;;;;;3.63;3.43;;;13.10;99.90;;;;;;4976613;28;20506;-70
2022/04/06 08:30:57;;;;;;;3.30;3.10;;;13.10;99.90;;;;;;4977262;28;20483;-70
2022/04/06 08:33:25;;;;;;;3.13;2.93;;;13.10;99.90;;;;;;4975996;28;20842;-70
2022/04/06 08:35:52;;;;;;;3.00;2.90;;;13.20;99.90;;;;;;4976552;28;20463;-69
2022/04/06 08:38:19;;;;;;;3.17;2.97;;;13.20;99.90;;;;;;4977070;28;20827;-69
2022/04/06 08:40:47;;;;;;;4.97;2.50;;;13.30;99.90;;;;;;4976826;28;20487;-69
2022/04/06 08:43:15;;;;;;;3.10;2.80;;;13.30;99.90;;;;;;4977129;28;20499;-70
2022/04/06 08:45:42;;;;;;;5.50;2.40;;;13.20;99.90;;;;;;4977174;28;20455;-69
2022/04/06 08:48:11;;;;;;;2.70;2.60;;;13.20;99.90;;;;;;4977530;28;20797;-69
2022/04/06 08:50:40;;;;;;;2.87;2.57;;;13.10;99.90;;;;;;4977432;28;20475;-69
2022/04/06 08:53:08;;;;;;;1.90;1.80;;;13.00;99.90;;;;;;4980891;28;20455;-68
2022/04/06 08:55:35;;;;;;;1.70;1.50;;;13.00;99.90;;;;;;4980185;28;20510;-68
2022/04/06 08:58:03;;;;;;;1.93;1.80;;;12.80;99.90;;;;;;4979220;28;20462;-68
2022/04/06 09:00:30;;;;;;;2.47;2.00;;;12.80;99.90;;;;;;4976779;28;20486;-68
2022/04/06 09:02:57;;;;;;;1.80;1.70;;;12.80;99.90;;;;;;4977694;28;20461;-68
2022/04/06 09:05:26;;;;;;;1.63;1.53;;;13.20;99.90;;;;;;4976080;28;20455;-68
2022/04/06 09:07:54;;;;;;;1.70;1.60;;;13.60;99.90;;;;;;4975847;28;20458;-70
2022/04/06 09:10:31;;;;;;;1.77;1.67;;;14.00;99.90;;;;;;4975467;28;20479;-68
2022/04/06 09:13:08;;;;;;;1.50;1.40;;;14.40;99.90;;;;;;4975921;28;20454;-68
2022/04/06 09:15:35;;;;;;;;;;;15.50;99.90;;;;;;4976462;28;20470;-68
2022/04/06 09:18:02;;;;;;;1.60;1.50;;;16.00;99.90;;;;;;4975900;28;20273;-68
2022/04/06 09:20:31;;;;;;;3.40;1.03;;;16.50;99.90;;;;;;4976293;28;20529;-68
2022/04/06 09:23:02;;;;;;;1.43;1.10;;;16.80;99.90;;;;;;4975886;28;20455;-68
2022/04/06 09:25:34;;;;;;;1.00;1.00;;;16.90;99.90;;;;;;4975857;28;20466;-68
2022/04/06 09:28:07;;;;;;;1.57;1.17;;;16.70;99.90;;;;;;4975688;28;20486;-68
2022/04/06 09:30:35;;;;;;;1.20;1.20;;;16.60;99.90;;;;;;4975534;28;20507;-69
2022/04/06 09:33:03;;;;;;;1.23;1.10;;;16.30;99.90;;;;;;4975488;28;20883;-68
2022/04/06 09:35:32;;;;;;;1.53;1.37;;;15.80;99.90;;;;;;4975536;28;20890;-68
2022/04/06 09:38:14;;;;;;;1.33;1.30;;;15.50;99.90;;;;;;4975157;28;20435;-69
2022/04/06 09:40:41;;;;;;;0.87;0.87;;;15.50;99.90;;;;;;4975105;28;20572;-69
2022/04/06 09:43:09;;;;;;;1.00;0.90;;;15.70;99.90;;;;;;4975068;28;20542;-70
2022/04/06 09:48:20;;;;;;;1.20;1.10;;;17.30;99.90;;;;;;4975058;28;20435;-69
2022/04/06 09:50:55;;;;;;;1.90;0.87;;;17.90;99.90;;;;;;4974942;28;20998;-69
2022/04/06 09:53:26;;;;;;;0.90;0.90;;;18.10;99.90;;;;;;4975230;28;20485;-69
2022/04/06 09:55:55;;;;;;;1.20;1.20;;;17.90;99.90;;;;;;4975205;28;20893;-69
2022/04/06 09:58:23;;;;;;;1.70;0.97;;;17.70;99.90;;;;;;4975192;28;20497;-70
2022/04/06 10:00:51;;;;;;;0.97;0.97;;;17.50;99.90;;;;;;4975155;28;20475;-69
2022/04/06 10:03:19;;;;;;;1.17;1.00;;;17.40;99.90;;;;;;4975062;28;20459;-69
2022/04/06 10:05:49;;;;;;;1.10;1.00;;;17.50;99.90;;;;;;4974740;28;20962;-68
2022/04/06 10:08:17;;;;;;;0.93;0.93;;;17.50;99.90;;;;;;4975173;28;20462;-69
2022/04/06 10:10:47;;;;;;;0.90;0.90;;;17.80;99.90;;;;;;4975181;28;20510;-69
2022/04/06 10:13:14;;;;;;;0.90;0.90;;;17.90;99.90;;;;;;4975004;28;20529;-69
2022/04/06 10:15:42;;;;;;;1.00;1.00;;;17.80;99.90;;;;;;4974815;28;20487;-69
2022/04/06 10:18:08;;;;;;;1.10;1.00;;;17.70;99.90;;;;;;4974880;28;20461;-69
2022/04/06 10:20:42;;;;;;;0.87;0.87;;;17.50;99.90;;;;;;4974768;28;20478;-70
2022/04/06 10:23:18;;;;;;;1.27;1.10;;;17.10;99.90;;;;;;4974915;28;20440;-69
2022/04/06 10:25:52;;;;;;;1.17;0.90;;;16.80;99.90;;;;;;4974715;28;20438;-69
2022/04/06 10:28:21;;;;;;;0.93;0.50;;;16.90;99.90;;;;;;4974730;28;20883;-69
2022/04/06 10:31:16;;;;;;;1.00;1.00;;;17.00;99.90;;;;;;4974833;28;20471;-69
2022/04/06 10:33:43;;;;;;;0.77;0.73;;;17.40;99.90;;;;;;4974847;28;20435;-70
2022/04/06 10:36:18;;;;;;;0.73;0.73;;;18.40;99.90;;;;;;4974729;28;20486;-69
2022/04/06 10:39:10;;;;;;;0.70;0.70;;;19.50;99.90;;;;;;4974636;28;20937;-69
2022/04/06 10:41:41;;;;;;;0.50;0.50;;;20.10;97.50;;;;;;4974540;28;20486;-70
2022/04/06 10:44:08;;;;;;;0.50;0.50;;;19.60;95.70;;;;;;4974769;28;20439;-69
2022/04/06 10:46:38;;;;;;;2.67;0.70;;;19.40;95.40;;;;;;4974644;28;20461;-69
2022/04/06 10:49:14;;;;;;;0.60;0.60;;;19.50;95.60;;;;;;4974504;28;20851;-69
2022/04/06 10:51:43;;;;;;;1.00;0.70;;;19.60;94.50;;;;;;4974735;28;20513;-69
2022/04/06 10:54:43;;;;;;;0.60;0.60;;;19.20;94.50;;;;;;4974838;28;20457;-69
2022/04/06 10:57:11;;;;;;;0.60;0.60;;;18.80;95.50;;;;;;4971761;28;20447;-69
2022/04/06 10:59:38;;;;;;;0.60;0.60;;;18.40;96.00;;;;;;4978395;28;20457;-70
2022/04/06 11:02:16;;;;;;;0.40;0.40;;;18.10;96.90;;;;;;4978597;28;20455;-70
2022/04/06 11:04:43;;;;;;;0.50;0.50;;;18.10;95.90;;;;;;4978175;28;20450;-70
2022/04/06 11:07:10;;;;;;;0.57;0.40;;;18.20;96.80;;;;;;4978039;28;20866;-70
2022/04/06 11:12:25;;;;;;;0.60;0.60;;;18.40;96.30;;;;;;4977983;28;20414;-70
2022/04/06 11:15:18;;;;;;;0.50;0.50;;;18.60;96.80;;;;;;4978007;28;20483;-70
2022/04/06 11:17:45;;;;;;;0.83;0.80;;;19.30;96.40;;;;;;4977717;28;20461;-70
2022/04/06 11:20:15;;;;;;;0.60;0.60;;;19.60;94.30;;;;;;4977739;28;20478;-69
2022/04/06 11:22:44;;;;;;;0.50;0.50;;;19.60;92.90;;;;;;4978065;28;20816;-70
2022/04/06 11:25:12;;;;;;;0.60;0.60;;;19.90;92.40;;;;;;4979368;28;20910;-70
2022/04/06 11:27:42;;;;;;;0.70;0.70;;;19.80;93.00;;;;;;4977670;28;20822;-70
2022/04/06 11:30:12;;;;;;;0.73;0.73;;;20.00;91.90;;;;;;4977454;28;20985;-69
2022/04/06 11:32:40;;;;;;;0.57;0.57;;;20.00;93.00;;;;;;4977258;28;20439;-71
2022/04/06 11:35:09;;;;;;;1.17;0.50;;;20.00;96.90;;;;;;4977763;28;20482;-70
2022/04/06 11:37:40;;;;;;;0.70;0.70;;;20.10;93.30;;;;;;4977072;28;20928;-70
2022/04/06 11:40:08;;;;;;;0.47;0.47;;;19.90;91.70;;;;;;4977422;28;20483;-70
2022/04/06 11:42:35;;;;;;;0.77;0.77;;;19.50;91.50;;;;;;4977463;28;20814;-70
2022/04/06 11:45:04;;;;;;;0.80;0.80;;;19.60;95.00;;;;;;4977180;28;20461;-71
2022/04/06 11:47:31;;;;;;;2.83;0.80;;;19.40;93.30;;;;;;4976964;28;20546;-70
2022/04/06 11:49:58;;;;;;;0.83;0.83;;;19.30;93.50;;;;;;4977064;28;21010;-70
2022/04/06 11:52:25;;;;;;;0.67;0.67;;;19.00;92.80;;;;;;4977252;28;20462;-68
2022/04/06 11:54:53;;;;;;;0.97;0.60;;;18.80;94.10;;;;;;4977660;28;20479;-67
2022/04/06 11:57:20;;;;;;;0.60;0.60;;;19.00;96.70;;;;;;4977160;28;20505;-66
2022/04/06 11:59:54;;;;;;;0.70;0.70;;;19.30;96.90;;;;;;4976730;28;20462;-67
2022/04/06 12:02:23;;;;;;;1.50;0.60;;;19.60;93.60;;;;;;4977164;28;20455;-67
2022/04/06 12:05:03;;;;;;;0.80;0.80;;;19.40;92.20;;;;;;4977661;28;20969;-67
2022/04/06 12:07:30;;;;;;;0.70;0.70;;;19.50;94.60;;;;;;4977087;28;20965;-67
2022/04/06 12:09:56;;;;;;;0.80;0.80;;;19.60;95.00;;;;;;4977394;28;20485;-67
2022/04/06 12:12:24;;;;;;;3.60;1.00;;;19.70;95.10;;;;;;4977990;28;20455;-66
2022/04/06 12:14:52;;;;;;;0.80;0.80;;;19.90;95.60;;;;;;4977111;28;20485;-66
2022/04/06 12:17:19;;;;;;;0.60;0.60;;;20.00;95.30;;;;;;4977022;28;20505;-66
2022/04/06 12:19:48;;;;;;;0.60;0.50;;;20.20;92.00;;;;;;4976542;28;20801;-66
2022/04/06 12:22:15;;;;;;;0.90;0.60;;;20.20;92.10;;;;;;4976153;28;21029;-66
2022/04/06 12:24:43;;;;;;;0.53;0.53;;;20.30;91.10;;;;;;4976711;28;20533;-65
2022/04/06 12:27:10;;;;;;;0.73;0.57;;;20.10;91.20;;;;;;4976637;28;20530;-65
2022/04/06 12:29:38;;;;;;;;;;;20.20;92.00;;;;;;4976717;28;20848;-66
2022/04/06 12:32:05;;;;;;;;;;;20.20;91.60;;;;;;4976386;28;19926;-66
2022/04/06 12:34:33;;;;;;;;;;;20.20;93.00;;;;;;4976805;28;19933;-66
2022/04/06 12:37:29;;;;;;;;;;;20.20;92.40;;;;;;4976948;28;19922;-65
2022/04/06 12:39:49;;;;;;;;;;;20.10;91.00;;;;;;4976467;28;19930;-66
2022/04/06 12:42:15;;;;;;;;;;;20.20;91.00;;;;;;4976439;28;20412;-66
2022/04/06 12:44:55;;;;;;;;;;;20.10;91.20;;;;;;4976887;28;19992;-66
2022/04/06 12:47:23;;;;;;;;;;;20.20;91.80;;;;;;4976691;28;19922;-66
2022/04/06 12:49:49;;;;;;;;;;;20.20;92.60;;;;;;4977185;28;20334;-66
2022/04/06 12:52:18;;;;;;;;;;;20.40;92.80;;;;;;4976595;28;19922;-66
2022/04/06 12:54:47;;;;;;;1.77;0.60;;;20.50;92.40;;;;;;4975861;28;20511;-67
2022/04/06 12:57:16;;;;;;;;;;;20.80;91.20;;;;;;4976137;28;20521;-67
2022/04/06 12:59:45;;;;;;;;;;;21.00;91.10;;;;;;4976497;28;19926;-67
2022/04/06 13:02:18;;;;;;;;;;;21.00;90.20;;;;;;4976231;28;20324;-66
2022/04/06 13:04:45;;;;;;;;;;;20.90;89.60;;;;;;4976101;28;20301;-66
2022/04/06 13:07:12;;;;;;;;;;;20.80;88.30;;;;;;4976438;28;19961;-66
2022/04/06 13:09:48;;;;;;;;;;;20.60;91.20;;;;;;4976238;28;19922;-66
2022/04/06 13:12:14;;;;;;;;;;;20.60;90.50;;;;;;4976279;28;19922;-66
2022/04/06 13:14:41;;;;;;;;;;;20.40;90.00;;;;;;4976236;28;19922;-66
2022/04/06 13:17:08;;;;;;;;;;;20.50;90.20;;;;;;4975928;28;19929;-67
2022/04/06 13:19:34;;;;;;;;;;;20.60;90.30;;;;;;4975308;28;19926;-67
2022/04/06 13:22:01;;;;;;;;;;;20.70;92.10;;;;;;4975731;28;20370;-67
2022/04/06 13:24:27;;;;;;;;;;;20.80;85.80;;;;;;4976160;28;19922;-66
2022/04/06 13:26:55;;;;;;;;;;;21.00;90.70;;;;;;4975418;28;20366;-66
2022/04/06 13:29:22;;;;;;;;;;;21.20;90.70;;;;;;4975975;28;20289;-66
2022/04/06 13:31:48;;;;;;;;;;;21.00;87.40;;;;;;4976021;28;19945;-66
2022/04/06 13:34:16;;;;;;;;;;;20.70;87.60;;;;;;4976040;28;19922;-66
2022/04/06 13:36:43;;;;;;;;;;;20.30;89.00;;;;;;4975466;28;20020;-66
2022/04/06 13:39:10;;;;;;;;;;;20.10;87.60;;;;;;4975805;28;19925;-66
2022/04/06 13:41:36;;;;;;;;;;;20.20;92.50;;;;;;4975313;28;19922;-66
2022/04/06 13:44:04;;;;;;;;;;;20.30;92.00;;;;;;4975646;28;20009;-66
2022/04/06 13:46:31;;;;;;;;;;;20.50;90.50;;;;;;4975390;28;19966;-66
2022/04/06 13:48:58;;;;;;;;;;;20.50;85.80;;;;;;4975436;28;20005;-66
2022/04/06 13:51:25;;;;;;;;;;;20.50;86.90;;;;;;4975210;28;19929;-66
2022/04/06 13:53:51;;;;;;;;;;;20.50;89.40;;;;;;4975621;28;19922;-65
2022/04/06 13:56:18;;;;;;;;;;;20.70;90.30;;;;;;4975862;28;19921;-66
2022/04/06 13:58:44;;;;;;;;;;;20.80;90.00;;;;;;4975656;28;19972;-66
2022/04/06 14:01:12;;;;;;;;;;;21.10;91.60;;;;;;4975524;28;19922;-66
2022/04/06 14:03:39;;;;;;;;;;;21.20;88.10;;;;;;4975566;28;19929;-66
2022/04/06 14:06:06;;;;;;;;;;;21.00;85.30;;;;;;4975306;28;19969;-66
2022/04/06 14:08:33;;;;;;;;;;;20.90;87.20;;;;;;4975394;28;19953;-66
2022/04/06 14:11:00;;;;;;;;;;;20.90;87.20;;;;;;4975223;28;19925;-66
2022/04/06 14:13:26;;;;;;;;;;;20.70;86.50;;;;;;4975365;28;19933;-66
2022/04/06 14:15:53;;;;;;;;;;;20.60;85.10;;;;;;4975128;28;19922;-66
2022/04/06 14:18:21;;;;;;;;;;;20.50;83.30;;;;;;4975185;28;19929;-66
2022/04/06 14:20:48;;;;;;;;;;;20.50;87.60;;;;;;4975353;28;19922;-66
2022/04/06 14:23:15;;;;;;;;;;;20.50;87.90;;;;;;4975373;28;20084;-66
2022/04/06 14:25:42;;;;;;;;;;;20.80;90.10;;;;;;4974832;28;20366;-66
2022/04/06 14:28:09;;;;;;;;;;;21.00;90.20;;;;;;4975017;28;19992;-66
2022/04/06 14:30:36;;;;;;;;;;;21.00;84.80;;;;;;4975084;28;19922;-66
2022/04/06 14:33:03;;;;;;;;;;;20.80;85.20;;;;;;4979205;28;20267;-66
2022/04/06 14:35:30;;;;;;;;;;;20.80;84.90;;;;;;4978821;28;19922;-66
2022/04/06 14:37:57;;;;;;;;;;;20.70;83.80;;;;;;4978999;28;19926;-66
2022/04/06 14:40:24;;;;;;;;;;;20.50;83.60;;;;;;4978727;28;19922;-65
2022/04/06 14:42:50;;;;;;;;;;;20.30;83.70;;;;;;4979679;28;19977;-64
2022/04/06 14:45:18;;;;;;;;;;;20.00;84.30;;;;;;4978917;28;19922;-65
2022/04/06 14:47:44;;;;;;;;;;;19.70;84.30;;;;;;4978181;28;19922;-65
2022/04/06 14:50:11;;;;;;;;;;;19.50;84.50;;;;;;4978729;28;19930;-65
2022/04/06 14:52:39;;;;;;;;;;;19.40;85.90;;;;;;4979038;28;19985;-65
2022/04/06 14:55:08;;;;;;;;;;;19.50;90.10;;;;;;4978952;28;19930;-65
2022/04/06 14:57:35;;;;;;;;;;;19.70;87.70;;;;;;4978716;28;19944;-65
2022/04/06 15:00:03;;;;;;;;;;;19.90;87.80;;;;;;4978591;28;19922;-67
2022/04/06 15:02:30;;;;;;;;;;;19.80;85.70;;;;;;4978600;28;19922;-66
2022/04/06 15:04:57;;;;;;;;;;;19.60;86.90;;;;;;4978715;28;19921;-66
2022/04/06 15:07:23;;;;;;;;;;;19.50;85.60;;;;;;4978409;28;19929;-66
2022/04/06 15:09:51;;;;;;;;;;;19.30;87.10;;;;;;4978455;28;20016;-66
2022/04/06 15:12:19;;;;;;;;;;;19.10;87.60;;;;;;4978676;28;19929;-66
2022/04/06 15:14:46;;;;;;;;;;;19.00;90.70;;;;;;4978477;28;19930;-66
2022/04/06 15:17:13;;;;;;;;;;;19.00;90.60;;;;;;4978420;28;19922;-65
2022/04/06 15:19:39;;;;;;;;;;;18.90;90.70;;;;;;4978384;28;19969;-66
2022/04/06 15:22:06;;;;;;;;;;;18.70;90.70;;;;;;4978461;28;19973;-66
2022/04/06 15:24:32;;;;;;;;;;;18.40;89.10;;;;;;4978505;28;19928;-66
2022/04/06 15:27:00;;;;;;;;;;;18.30;90.90;;;;;;4978259;28;19960;-66
2022/04/06 15:29:27;;;;;;;;;;;18.20;90.20;;;;;;4978486;28;19929;-66
2022/04/06 15:31:53;;;;;;;;;;;18.10;91.20;;;;;;4977814;28;19929;-67
2022/04/06 15:37:19;;;;;;;;;;;18.00;92.40;;;;;;4978047;28;19933;-66
2022/04/06 15:39:46;;;;;;;;;;;17.90;92.80;;;;;;4978066;28;19925;-66
2022/04/06 15:42:16;;;;;;;;;;;17.80;92.00;;;;;;4977586;28;19945;-65
2022/04/06 15:44:42;;;;;;;;;;;17.70;92.20;;;;;;4977339;28;19988;-65
2022/04/06 15:47:09;;;;;;;;;;;17.60;92.10;;;;;;4977595;28;19921;-65
2022/04/06 15:49:37;;;;;;;;;;;17.40;92.50;;;;;;4977872;28;20322;-65
2022/04/06 15:52:04;;;;;;;;;;;17.40;93.20;;;;;;4977940;28;19922;-66
2022/04/06 15:54:31;;;;;;;;;;;17.30;93.20;;;;;;4977943;28;19922;-66
2022/04/06 15:56:57;;;;;;;;;;;17.10;92.80;;;;;;4977842;28;19926;-66
2022/04/06 15:59:25;;;;;;;;;;;17.10;93.80;;;;;;4977853;28;20293;-65
2022/04/06 16:01:52;;;;;;;;;;;17.10;94.20;;;;;;4977607;28;19945;-66
2022/04/06 16:04:18;;;;;;;;;;;17.20;94.50;;;;;;4977648;28;20289;-66
2022/04/06 16:06:45;;;;;;;;;;;17.20;93.70;;;;;;4977940;28;19929;-66
2022/04/06 16:09:12;;;;;;;;;;;17.10;94.40;;;;;;4977751;28;19922;-67
2022/04/06 16:11:40;;;;;;;;;;;17.10;93.20;;;;;;4977537;28;20361;-66
2022/04/06 16:14:06;;;;;;;;;;;17.10;94.00;;;;;;4982156;28;20381;-66
2022/04/06 16:16:34;;;;;;;;;;;17.00;94.60;;;;;;4985281;28;19922;-66
2022/04/06 16:19:01;;;;;;;;;;;17.00;95.40;;;;;;4982632;28;19932;-66
2022/04/06 16:21:27;;;;;;;;;;;17.00;94.70;;;;;;4979300;28;20321;-66
2022/04/06 16:23:54;;;;;;;;;;;17.00;94.90;;;;;;4978509;28;19921;-66
2022/04/06 16:26:21;;;;;;;;;;;16.80;94.60;;;;;;4978226;28;19973;-66
2022/04/06 16:28:48;;;;;;;;;;;16.70;95.10;;;;;;4977878;28;20297;-66
2022/04/06 16:31:14;;;;;;;;;;;16.60;95.60;;;;;;4978536;28;19926;-66
2022/04/06 16:33:43;;;;;;;;;;;16.60;95.80;;;;;;4978835;28;19921;-66
2022/04/06 16:36:10;;;;;;;;;;;16.40;95.80;;;;;;4977644;28;19929;-66
2022/04/06 16:38:37;;;;;;;;;;;16.30;96.90;;;;;;4978714;28;19969;-66
2022/04/06 16:41:04;;;;;;;;;;;16.30;97.30;;;;;;4977866;28;20013;-66
2022/04/06 16:43:30;;;;;;;;;;;16.20;97.30;;;;;;4977369;28;20373;-66
2022/04/06 16:45:58;;;;;;;;;;;16.10;98.20;;;;;;4977405;28;19928;-66
2022/04/06 16:48:24;;;;;;;;;;;16.00;98.30;;;;;;4977183;28;19929;-66
2022/04/06 16:53:36;;;;;;;;;;;15.90;98.50;;;;;;4977003;28;20304;-66
2022/04/06 16:56:03;;;;;;;;;;;15.80;98.60;;;;;;4976973;28;20297;-65
2022/04/06 16:58:29;;;;;;;;;;;15.70;98.80;;;;;;4976797;28;20024;-66
2022/04/06 17:00:57;;;;;;;;;;;15.60;98.60;;;;;;4976646;28;19922;-65
2022/04/06 17:03:24;;;;;;;;;;;15.50;99.60;;;;;;4976696;28;20013;-67
2022/04/06 17:05:53;;;;;;;;;;;15.40;99.90;;;;;;4977088;28;19969;-65
2022/04/06 17:08:20;;;;;;;;;;;15.40;99.90;;;;;;4976232;28;19929;-65
2022/04/06 17:10:46;;;;;;;;;;;15.30;99.90;;;;;;4976206;28;20300;-65
2022/04/06 17:13:13;;;;;;;;;;;15.30;99.90;;;;;;4976489;28;19984;-65